TKJ11V LTFJ-BKPR
Flight info
| Callsign | TKJ11V |
|---|---|
| Flight time | 1h 8m |
| Altitude | 34000 |
| Route | BARPE UG12 GOLDO DCT IDILO UM603 SUTIS DCT DISOR DCT SKJ T218 XAXAN XAXAN1A |
| Aircraft | B738/M-SDE2E3FGHIRWXY/LB1 |
Departure
| Time | 2026-04-16 06:01 |
|---|---|
| Airport | Istanbul Sabiha Gökçen International Airport (LTFJ) |
Arrival
| Time | 2026-04-16 07:10 |
|---|---|
| Airport | Priština Adem Jashari International Airport (BKPR) |
| Time | Latitude | Longitude | Altitude | Speed | Heading |
|---|---|---|---|---|---|
| 2026-04-16 05:37 | 40.90235 | 29.31083 | 320 ft | 0 kts | 155° |
| 2026-04-16 05:52 | 40.90244 | 29.31077 | 320 ft | 2 kts | 154° |
| 2026-04-16 05:52 | 40.90259 | 29.31068 | 320 ft | 2 kts | 154° |
| 2026-04-16 05:52 | 40.90273 | 29.31058 | 320 ft | 2 kts | 153° |
| 2026-04-16 05:53 | 40.90288 | 29.31048 | 319 ft | 2 kts | 156° |
| 2026-04-16 05:53 | 40.90304 | 29.31046 | 320 ft | 2 kts | 228° |
| 2026-04-16 05:53 | 40.90311 | 29.31061 | 319 ft | 1 kts | 243° |
| 2026-04-16 05:53 | 40.90313 | 29.31063 | 319 ft | 0 kts | 243° |
| 2026-04-16 05:55 | 40.90312 | 29.31061 | 319 ft | 1 kts | 243° |
| 2026-04-16 05:56 | 40.90294 | 29.31016 | 319 ft | 10 kts | 244° |
| 2026-04-16 05:56 | 40.90251 | 29.30898 | 319 ft | 16 kts | 242° |
| 2026-04-16 05:56 | 40.90210 | 29.30878 | 319 ft | 6 kts | 162° |
| 2026-04-16 05:56 | 40.90151 | 29.30913 | 320 ft | 13 kts | 154° |
| 2026-04-16 05:57 | 40.90056 | 29.30892 | 318 ft | 17 kts | 237° |
| 2026-04-16 05:57 | 40.89995 | 29.30729 | 320 ft | 21 kts | 244° |
| 2026-04-16 05:57 | 40.89932 | 29.30557 | 292 ft | 21 kts | 244° |
| 2026-04-16 05:57 | 40.89870 | 29.30390 | 319 ft | 20 kts | 244° |
| 2026-04-16 05:58 | 40.89811 | 29.30228 | 320 ft | 19 kts | 244° |
| 2026-04-16 05:58 | 40.89753 | 29.30070 | 320 ft | 19 kts | 244° |
| 2026-04-16 05:58 | 40.89697 | 29.29918 | 320 ft | 19 kts | 244° |
| 2026-04-16 05:58 | 40.89638 | 29.29756 | 320 ft | 21 kts | 244° |
| 2026-04-16 05:59 | 40.89571 | 29.29574 | 320 ft | 23 kts | 244° |
| 2026-04-16 05:59 | 40.89499 | 29.29379 | 319 ft | 22 kts | 244° |
| 2026-04-16 05:59 | 40.89426 | 29.29253 | 320 ft | 17 kts | 198° |
| 2026-04-16 05:59 | 40.89343 | 29.29284 | 319 ft | 7 kts | 154° |
| 2026-04-16 06:00 | 40.89298 | 29.29315 | 321 ft | 7 kts | 147° |
| 2026-04-16 06:00 | 40.89284 | 29.29366 | 321 ft | 4 kts | 68° |
| 2026-04-16 06:00 | 40.89296 | 29.29399 | 320 ft | 0 kts | 64° |
| 2026-04-16 06:01 | 40.89394 | 29.29666 | 320 ft | 69 kts | 64° |
| 2026-04-16 06:01 | 40.89707 | 29.30515 | 321 ft | 133 kts | 64° |
| 2026-04-16 06:01 | 40.90185 | 29.31817 | 514 ft | 170 kts | 64° |
| 2026-04-16 06:01 | 40.90699 | 29.33233 | 1478 ft | 171 kts | 66° |
| 2026-04-16 06:02 | 40.91762 | 29.36139 | 2907 ft | 202 kts | 65° |
| 2026-04-16 06:02 | 40.92412 | 29.37915 | 3180 ft | 225 kts | 64° |
| 2026-04-16 06:02 | 40.92902 | 29.39946 | 3567 ft | 242 kts | 87° |
| 2026-04-16 06:03 | 40.92577 | 29.42170 | 4165 ft | 254 kts | 115° |
| 2026-04-16 06:03 | 40.91450 | 29.44028 | 4864 ft | 268 kts | 142° |
| 2026-04-16 06:03 | 40.89797 | 29.45251 | 5635 ft | 275 kts | 154° |
| 2026-04-16 06:03 | 40.88067 | 29.46322 | 6443 ft | 280 kts | 155° |
| 2026-04-16 06:04 | 40.86279 | 29.47427 | 7235 ft | 285 kts | 155° |
| 2026-04-16 06:04 | 40.84355 | 29.48069 | 7984 ft | 289 kts | 182° |
| 2026-04-16 06:04 | 40.82415 | 29.47461 | 8801 ft | 288 kts | 210° |
| 2026-04-16 06:04 | 40.80814 | 29.45902 | 9687 ft | 287 kts | 225° |
| 2026-04-16 06:05 | 40.79340 | 29.44090 | 10587 ft | 291 kts | 227° |
| 2026-04-16 06:05 | 40.77818 | 29.42179 | 10879 ft | 314 kts | 226° |
| 2026-04-16 06:05 | 40.76185 | 29.40149 | 11074 ft | 338 kts | 226° |
| 2026-04-16 06:05 | 40.74399 | 29.37965 | 11262 ft | 360 kts | 225° |
| 2026-04-16 06:06 | 40.72544 | 29.35669 | 11767 ft | 367 kts | 230° |
| 2026-04-16 06:06 | 40.71185 | 29.32858 | 12500 ft | 363 kts | 251° |
| 2026-04-16 06:06 | 40.70670 | 29.29634 | 13338 ft | 359 kts | 268° |
| 2026-04-16 06:06 | 40.70929 | 29.26375 | 14063 ft | 360 kts | 285° |
| 2026-04-16 06:07 | 40.71688 | 29.23244 | 14684 ft | 364 kts | 288° |
| 2026-04-16 06:07 | 40.72511 | 29.20050 | 15248 ft | 370 kts | 288° |
| 2026-04-16 06:07 | 40.73323 | 29.16812 | 15843 ft | 374 kts | 287° |
| 2026-04-16 06:07 | 40.74126 | 29.13532 | 16440 ft | 377 kts | 287° |
| 2026-04-16 06:08 | 40.74927 | 29.10219 | 17022 ft | 381 kts | 287° |
| 2026-04-16 06:08 | 40.75734 | 29.06866 | 17586 ft | 385 kts | 287° |
| 2026-04-16 06:08 | 40.76551 | 29.03468 | 18157 ft | 389 kts | 287° |
| 2026-04-16 06:08 | 40.77216 | 29.00036 | 18655 ft | 393 kts | 278° |
| 2026-04-16 06:09 | 40.77468 | 28.96436 | 19188 ft | 395 kts | 274° |
| 2026-04-16 06:09 | 40.77629 | 28.92811 | 19731 ft | 397 kts | 273° |
| 2026-04-16 06:09 | 40.77772 | 28.89155 | 20259 ft | 399 kts | 273° |
| 2026-04-16 06:09 | 40.77918 | 28.85477 | 20757 ft | 402 kts | 273° |
| 2026-04-16 06:10 | 40.78076 | 28.81784 | 21244 ft | 405 kts | 273° |
| 2026-04-16 06:10 | 40.78245 | 28.78055 | 21727 ft | 407 kts | 274° |
| 2026-04-16 06:10 | 40.78423 | 28.74308 | 22198 ft | 410 kts | 274° |
| 2026-04-16 06:10 | 40.78605 | 28.70540 | 22664 ft | 412 kts | 274° |
| 2026-04-16 06:11 | 40.78792 | 28.66746 | 23108 ft | 415 kts | 274° |
| 2026-04-16 06:11 | 40.78977 | 28.62968 | 23533 ft | 418 kts | 274° |
| 2026-04-16 06:11 | 40.79166 | 28.59120 | 23919 ft | 420 kts | 274° |
| 2026-04-16 06:11 | 40.79353 | 28.55263 | 24284 ft | 422 kts | 274° |
| 2026-04-16 06:12 | 40.79541 | 28.51374 | 24647 ft | 424 kts | 274° |
| 2026-04-16 06:12 | 40.79728 | 28.47479 | 25003 ft | 426 kts | 274° |
| 2026-04-16 06:12 | 40.79912 | 28.43613 | 25346 ft | 428 kts | 274° |
| 2026-04-16 06:12 | 40.80098 | 28.39673 | 25686 ft | 430 kts | 274° |
| 2026-04-16 06:13 | 40.80284 | 28.35711 | 26020 ft | 432 kts | 274° |
| 2026-04-16 06:13 | 40.80469 | 28.31735 | 26334 ft | 435 kts | 273° |
| 2026-04-16 06:13 | 40.80654 | 28.27740 | 26653 ft | 437 kts | 273° |
| 2026-04-16 06:13 | 40.80835 | 28.23776 | 26963 ft | 438 kts | 273° |
| 2026-04-16 06:14 | 40.81018 | 28.19752 | 27272 ft | 440 kts | 273° |
| 2026-04-16 06:14 | 40.81201 | 28.15694 | 27570 ft | 442 kts | 273° |
| 2026-04-16 06:14 | 40.81383 | 28.11633 | 27858 ft | 444 kts | 273° |
| 2026-04-16 06:14 | 40.81565 | 28.07544 | 28247 ft | 444 kts | 273° |
| 2026-04-16 06:15 | 40.81741 | 28.03539 | 28734 ft | 441 kts | 273° |
| 2026-04-16 06:15 | 40.81918 | 27.99503 | 29219 ft | 439 kts | 273° |
| 2026-04-16 06:15 | 40.82093 | 27.95468 | 29658 ft | 438 kts | 273° |
| 2026-04-16 06:15 | 40.82266 | 27.91449 | 30068 ft | 437 kts | 273° |
| 2026-04-16 06:16 | 40.82437 | 27.87445 | 30451 ft | 435 kts | 273° |
| 2026-04-16 06:16 | 40.82606 | 27.83455 | 30814 ft | 434 kts | 273° |
| 2026-04-16 06:16 | 40.82770 | 27.79532 | 31167 ft | 433 kts | 273° |
| 2026-04-16 06:16 | 40.82936 | 27.75560 | 31512 ft | 432 kts | 273° |
| 2026-04-16 06:17 | 40.83099 | 27.71605 | 31861 ft | 431 kts | 273° |
| 2026-04-16 06:17 | 40.83261 | 27.67652 | 32197 ft | 430 kts | 273° |
| 2026-04-16 06:17 | 40.83421 | 27.63707 | 32531 ft | 429 kts | 273° |
| 2026-04-16 06:17 | 40.83578 | 27.59823 | 32854 ft | 428 kts | 273° |
| 2026-04-16 06:18 | 40.83734 | 27.55901 | 33190 ft | 427 kts | 272° |
| 2026-04-16 06:18 | 40.83889 | 27.51983 | 33545 ft | 425 kts | 272° |
| 2026-04-16 06:18 | 40.84042 | 27.48096 | 33900 ft | 423 kts | 272° |
| 2026-04-16 06:18 | 40.84193 | 27.44204 | 34147 ft | 424 kts | 272° |
| 2026-04-16 06:19 | 40.84491 | 27.36446 | 34129 ft | 425 kts | 272° |
| 2026-04-16 06:19 | 40.84785 | 27.28661 | 34128 ft | 423 kts | 272° |
| 2026-04-16 06:20 | 40.85072 | 27.20922 | 34132 ft | 421 kts | 272° |
| 2026-04-16 06:20 | 40.85353 | 27.13197 | 34126 ft | 420 kts | 272° |
| 2026-04-16 06:21 | 40.85629 | 27.05486 | 34135 ft | 420 kts | 272° |
| 2026-04-16 06:21 | 40.85897 | 26.97819 | 34132 ft | 420 kts | 272° |
| 2026-04-16 06:22 | 40.86163 | 26.90090 | 34137 ft | 421 kts | 272° |
| 2026-04-16 06:22 | 40.86424 | 26.82340 | 34130 ft | 422 kts | 272° |
| 2026-04-16 06:23 | 40.86681 | 26.74582 | 34140 ft | 423 kts | 272° |
| 2026-04-16 06:23 | 40.86934 | 26.66775 | 34133 ft | 425 kts | 272° |
| 2026-04-16 06:24 | 40.87179 | 26.59016 | 34140 ft | 426 kts | 272° |
| 2026-04-16 06:24 | 40.87423 | 26.51180 | 34125 ft | 427 kts | 272° |
| 2026-04-16 06:25 | 40.87661 | 26.43326 | 34137 ft | 427 kts | 271° |
| 2026-04-16 06:25 | 40.87895 | 26.35472 | 34134 ft | 427 kts | 271° |
| 2026-04-16 06:26 | 40.88122 | 26.27660 | 34130 ft | 427 kts | 271° |
| 2026-04-16 06:26 | 40.88738 | 26.19831 | 34140 ft | 427 kts | 278° |
| 2026-04-16 06:27 | 40.89687 | 26.12115 | 34119 ft | 428 kts | 278° |
| 2026-04-16 06:27 | 40.90640 | 26.04343 | 34137 ft | 428 kts | 278° |
| 2026-04-16 06:28 | 40.91416 | 25.97868 | 34136 ft | 428 kts | 278° |
| 2026-04-16 06:28 | 40.92334 | 25.90079 | 34131 ft | 428 kts | 277° |
| 2026-04-16 06:29 | 40.93243 | 25.82288 | 34139 ft | 429 kts | 277° |
| 2026-04-16 06:29 | 40.94143 | 25.74532 | 34129 ft | 429 kts | 277° |
| 2026-04-16 06:30 | 40.95045 | 25.66715 | 34129 ft | 429 kts | 277° |
| 2026-04-16 06:30 | 40.95942 | 25.58887 | 34131 ft | 429 kts | 277° |
| 2026-04-16 06:31 | 40.96829 | 25.51107 | 34131 ft | 429 kts | 277° |
| 2026-04-16 06:31 | 40.97714 | 25.43293 | 34129 ft | 430 kts | 277° |
| 2026-04-16 06:32 | 40.98595 | 25.35460 | 34122 ft | 430 kts | 277° |
| 2026-04-16 06:32 | 40.99471 | 25.27631 | 34133 ft | 430 kts | 277° |
| 2026-04-16 06:33 | 41.00342 | 25.19795 | 34125 ft | 430 kts | 277° |
| 2026-04-16 06:33 | 41.01202 | 25.12003 | 34112 ft | 430 kts | 277° |
| 2026-04-16 06:34 | 41.02063 | 25.04158 | 34126 ft | 430 kts | 277° |
| 2026-04-16 06:34 | 41.02920 | 24.96294 | 34120 ft | 430 kts | 276° |
| 2026-04-16 06:35 | 41.03766 | 24.88484 | 34106 ft | 430 kts | 276° |
| 2026-04-16 06:35 | 41.04612 | 24.80627 | 34117 ft | 430 kts | 276° |
| 2026-04-16 06:36 | 41.05451 | 24.72769 | 34107 ft | 431 kts | 276° |
| 2026-04-16 06:36 | 41.06283 | 24.64941 | 34100 ft | 431 kts | 276° |
| 2026-04-16 06:37 | 41.07114 | 24.57064 | 34106 ft | 431 kts | 276° |
| 2026-04-16 06:37 | 41.07939 | 24.49188 | 34107 ft | 431 kts | 276° |
| 2026-04-16 06:38 | 41.08759 | 24.41306 | 34113 ft | 432 kts | 276° |
| 2026-04-16 06:38 | 41.09571 | 24.33454 | 34108 ft | 431 kts | 276° |
| 2026-04-16 06:39 | 41.10382 | 24.25550 | 34111 ft | 432 kts | 276° |
| 2026-04-16 06:39 | 41.11184 | 24.17685 | 34115 ft | 432 kts | 276° |
| 2026-04-16 06:40 | 41.11980 | 24.09825 | 34109 ft | 432 kts | 276° |
| 2026-04-16 06:40 | 41.12775 | 24.01917 | 34108 ft | 432 kts | 275° |
| 2026-04-16 06:41 | 41.13566 | 23.93995 | 34110 ft | 433 kts | 275° |
| 2026-04-16 06:41 | 41.14350 | 23.86084 | 34100 ft | 432 kts | 275° |
| 2026-04-16 06:42 | 41.15125 | 23.78209 | 34110 ft | 433 kts | 275° |
| 2026-04-16 06:42 | 41.15902 | 23.70258 | 34106 ft | 434 kts | 275° |
| 2026-04-16 06:43 | 41.16674 | 23.62296 | 34113 ft | 435 kts | 275° |
| 2026-04-16 06:43 | 41.17442 | 23.54321 | 34106 ft | 436 kts | 275° |
| 2026-04-16 06:44 | 41.18201 | 23.46378 | 34111 ft | 436 kts | 275° |
| 2026-04-16 06:44 | 41.18961 | 23.38367 | 34102 ft | 437 kts | 275° |
| 2026-04-16 06:45 | 41.19717 | 23.30337 | 34097 ft | 437 kts | 275° |
| 2026-04-16 06:45 | 41.20466 | 23.22321 | 34099 ft | 437 kts | 275° |
| 2026-04-16 06:46 | 41.21205 | 23.14358 | 34099 ft | 437 kts | 275° |
| 2026-04-16 06:46 | 41.21942 | 23.06345 | 34106 ft | 436 kts | 274° |
| 2026-04-16 06:47 | 41.22673 | 22.98334 | 34106 ft | 436 kts | 274° |
| 2026-04-16 06:47 | 41.23394 | 22.90388 | 34102 ft | 436 kts | 274° |
| 2026-04-16 06:48 | 41.24115 | 22.82380 | 34117 ft | 435 kts | 275° |
| 2026-04-16 06:48 | 41.25882 | 22.74656 | 34115 ft | 442 kts | 294° |
| 2026-04-16 06:49 | 41.27435 | 22.71144 | 33659 ft | 453 kts | 304° |
| 2026-04-16 06:49 | 41.29400 | 22.67861 | 33081 ft | 451 kts | 307° |
| 2026-04-16 06:49 | 41.31422 | 22.64662 | 32410 ft | 452 kts | 307° |
| 2026-04-16 06:49 | 41.33467 | 22.61465 | 31699 ft | 452 kts | 307° |
| 2026-04-16 06:50 | 41.35498 | 22.58274 | 31175 ft | 449 kts | 307° |
| 2026-04-16 06:50 | 41.37499 | 22.55102 | 30676 ft | 445 kts | 307° |
| 2026-04-16 06:50 | 41.39450 | 22.51980 | 30193 ft | 441 kts | 307° |
| 2026-04-16 06:50 | 41.41396 | 22.48840 | 29641 ft | 437 kts | 307° |
| 2026-04-16 06:51 | 41.43318 | 22.45726 | 29128 ft | 432 kts | 307° |
| 2026-04-16 06:51 | 41.45222 | 22.42631 | 28622 ft | 428 kts | 307° |
| 2026-04-16 06:51 | 41.47103 | 22.39570 | 28136 ft | 424 kts | 307° |
| 2026-04-16 06:51 | 41.48964 | 22.36539 | 27624 ft | 420 kts | 307° |
| 2026-04-16 06:52 | 41.50785 | 22.33568 | 27136 ft | 417 kts | 307° |
| 2026-04-16 06:52 | 41.52616 | 22.30580 | 26664 ft | 414 kts | 307° |
| 2026-04-16 06:52 | 41.54433 | 22.27613 | 26190 ft | 410 kts | 307° |
| 2026-04-16 06:52 | 41.56235 | 22.24666 | 25715 ft | 408 kts | 307° |
| 2026-04-16 06:53 | 41.58026 | 22.21735 | 25244 ft | 406 kts | 308° |
| 2026-04-16 06:53 | 41.59799 | 22.18832 | 24773 ft | 404 kts | 308° |
| 2026-04-16 06:53 | 41.61568 | 22.15933 | 24305 ft | 402 kts | 308° |
| 2026-04-16 06:53 | 41.63337 | 22.13029 | 23815 ft | 401 kts | 308° |
| 2026-04-16 06:54 | 41.65097 | 22.10138 | 23276 ft | 400 kts | 308° |
| 2026-04-16 06:54 | 41.66828 | 22.07293 | 22778 ft | 398 kts | 308° |
| 2026-04-16 06:54 | 41.68571 | 22.04425 | 22283 ft | 395 kts | 308° |
| 2026-04-16 06:54 | 41.70301 | 22.01575 | 21812 ft | 392 kts | 308° |
| 2026-04-16 06:55 | 41.72019 | 21.98743 | 21353 ft | 390 kts | 308° |
| 2026-04-16 06:55 | 41.73724 | 21.95930 | 20890 ft | 387 kts | 308° |
| 2026-04-16 06:55 | 41.75415 | 21.93137 | 20428 ft | 385 kts | 308° |
| 2026-04-16 06:55 | 41.77106 | 21.90342 | 19851 ft | 386 kts | 309° |
| 2026-04-16 06:56 | 41.78799 | 21.87540 | 19363 ft | 385 kts | 309° |
| 2026-04-16 06:56 | 41.80463 | 21.84784 | 18916 ft | 383 kts | 309° |
| 2026-04-16 06:56 | 41.82138 | 21.82007 | 18435 ft | 378 kts | 309° |
| 2026-04-16 06:56 | 41.83772 | 21.79296 | 17933 ft | 368 kts | 309° |
| 2026-04-16 06:57 | 41.85359 | 21.76660 | 17462 ft | 358 kts | 309° |
| 2026-04-16 06:57 | 41.86887 | 21.74120 | 17031 ft | 349 kts | 309° |
| 2026-04-16 06:57 | 41.88391 | 21.71617 | 16616 ft | 340 kts | 309° |
| 2026-04-16 06:57 | 41.89854 | 21.69183 | 16249 ft | 330 kts | 309° |
| 2026-04-16 06:58 | 41.91281 | 21.66805 | 15848 ft | 323 kts | 309° |
| 2026-04-16 06:58 | 41.92683 | 21.64468 | 15458 ft | 318 kts | 309° |
| 2026-04-16 06:58 | 41.94082 | 21.62176 | 15086 ft | 318 kts | 310° |
| 2026-04-16 06:58 | 41.95553 | 21.59935 | 14693 ft | 322 kts | 312° |
| 2026-04-16 06:59 | 41.97043 | 21.57721 | 14304 ft | 324 kts | 312° |
| 2026-04-16 06:59 | 41.98560 | 21.55474 | 13894 ft | 325 kts | 312° |
| 2026-04-16 06:59 | 42.00084 | 21.53206 | 13456 ft | 325 kts | 312° |
| 2026-04-16 06:59 | 42.01597 | 21.50945 | 13040 ft | 325 kts | 312° |
| 2026-04-16 07:00 | 42.03107 | 21.48681 | 12639 ft | 325 kts | 311° |
| 2026-04-16 07:00 | 42.04603 | 21.46433 | 12226 ft | 318 kts | 311° |
| 2026-04-16 07:00 | 42.06058 | 21.44241 | 11842 ft | 310 kts | 311° |
| 2026-04-16 07:01 | 42.08833 | 21.40058 | 11411 ft | 285 kts | 311° |
| 2026-04-16 07:01 | 42.10123 | 21.38111 | 11272 ft | 272 kts | 311° |
| 2026-04-16 07:01 | 42.11360 | 21.36242 | 11170 ft | 265 kts | 311° |
| 2026-04-16 07:01 | 42.12563 | 21.34424 | 11070 ft | 263 kts | 311° |
| 2026-04-16 07:02 | 42.13860 | 21.32689 | 10898 ft | 264 kts | 328° |
| 2026-04-16 07:02 | 42.15556 | 21.31655 | 10619 ft | 269 kts | 340° |
| 2026-04-16 07:02 | 42.17318 | 21.30759 | 10300 ft | 271 kts | 340° |
| 2026-04-16 07:02 | 42.19089 | 21.29851 | 9962 ft | 273 kts | 339° |
| 2026-04-16 07:03 | 42.20848 | 21.28939 | 9601 ft | 274 kts | 339° |
| 2026-04-16 07:03 | 42.22638 | 21.28003 | 9253 ft | 276 kts | 339° |
| 2026-04-16 07:03 | 42.24426 | 21.27063 | 8886 ft | 274 kts | 339° |
| 2026-04-16 07:03 | 42.26192 | 21.26133 | 8550 ft | 268 kts | 339° |
| 2026-04-16 07:04 | 42.27843 | 21.25103 | 8212 ft | 263 kts | 323° |
| 2026-04-16 07:04 | 42.29110 | 21.23378 | 7959 ft | 255 kts | 311° |
| 2026-04-16 07:04 | 42.30277 | 21.21582 | 7625 ft | 252 kts | 311° |
| 2026-04-16 07:04 | 42.31420 | 21.19818 | 7322 ft | 247 kts | 311° |
| 2026-04-16 07:05 | 42.32550 | 21.18079 | 7021 ft | 244 kts | 311° |
| 2026-04-16 07:05 | 42.33661 | 21.16370 | 6729 ft | 240 kts | 312° |
| 2026-04-16 07:05 | 42.34761 | 21.14683 | 6430 ft | 237 kts | 312° |
| 2026-04-16 07:05 | 42.35844 | 21.13024 | 6117 ft | 233 kts | 312° |
| 2026-04-16 07:06 | 42.36907 | 21.11394 | 5832 ft | 229 kts | 312° |
| 2026-04-16 07:06 | 42.37954 | 21.09791 | 5570 ft | 230 kts | 313° |
| 2026-04-16 07:06 | 42.39014 | 21.08167 | 5296 ft | 230 kts | 313° |
| 2026-04-16 07:06 | 42.40079 | 21.06534 | 5016 ft | 231 kts | 314° |
| 2026-04-16 07:07 | 42.41357 | 21.05308 | 4733 ft | 224 kts | 346° |
| 2026-04-16 07:07 | 42.42865 | 21.04986 | 4490 ft | 216 kts | 357° |
| 2026-04-16 07:07 | 42.44338 | 21.04859 | 4215 ft | 212 kts | 359° |
| 2026-04-16 07:07 | 42.45807 | 21.04755 | 3939 ft | 208 kts | 358° |
| 2026-04-16 07:08 | 42.47226 | 21.04617 | 3650 ft | 199 kts | 357° |
| 2026-04-16 07:08 | 42.48555 | 21.04479 | 3522 ft | 182 kts | 357° |
| 2026-04-16 07:08 | 42.49790 | 21.04353 | 3252 ft | 173 kts | 358° |
| 2026-04-16 07:08 | 42.50920 | 21.04237 | 2975 ft | 160 kts | 357° |
| 2026-04-16 07:09 | 42.51995 | 21.04127 | 2730 ft | 152 kts | 357° |
| 2026-04-16 07:09 | 42.53038 | 21.04021 | 2485 ft | 149 kts | 356° |
| 2026-04-16 07:09 | 42.54073 | 21.03915 | 2238 ft | 147 kts | 355° |
| 2026-04-16 07:09 | 42.55086 | 21.03806 | 1941 ft | 144 kts | 355° |
| 2026-04-16 07:10 | 42.56051 | 21.03718 | 1795 ft | 132 kts | 356° |
| 2026-04-16 07:10 | 42.56799 | 21.03638 | 1783 ft | 77 kts | 356° |
| 2026-04-16 07:10 | 42.57162 | 21.03601 | 1789 ft | 41 kts | 355° |
| 2026-04-16 07:10 | 42.57444 | 21.03572 | 1788 ft | 39 kts | 356° |
| 2026-04-16 07:11 | 42.57702 | 21.03542 | 1784 ft | 36 kts | 350° |
| 2026-04-16 07:11 | 42.57905 | 21.03426 | 1785 ft | 22 kts | 327° |
| 2026-04-16 07:11 | 42.57997 | 21.03342 | 1788 ft | 14 kts | 325° |
| 2026-04-16 07:11 | 42.58005 | 21.03289 | 1789 ft | 5 kts | 230° |
| 2026-04-16 07:12 | 42.57950 | 21.03275 | 1787 ft | 13 kts | 175° |
| 2026-04-16 07:12 | 42.57833 | 21.03288 | 1785 ft | 18 kts | 175° |
| 2026-04-16 07:12 | 42.57757 | 21.03287 | 1786 ft | 4 kts | 212° |
| 2026-04-16 07:12 | 42.57740 | 21.03233 | 1786 ft | 9 kts | 242° |
| 2026-04-16 07:13 | 42.57688 | 21.03204 | 1786 ft | 8 kts | 176° |
| 2026-04-16 07:13 | 42.57605 | 21.03212 | 1785 ft | 14 kts | 176° |
| 2026-04-16 07:13 | 42.57524 | 21.03217 | 1786 ft | 8 kts | 191° |
| 2026-04-16 07:13 | 42.57510 | 21.03183 | 1785 ft | 6 kts | 264° |
| 2026-04-16 07:14 | 42.57507 | 21.03129 | 1786 ft | 4 kts | 265° |
| 2026-04-16 07:14 | 42.57505 | 21.03105 | 1786 ft | 0 kts | 265° |